Time;durP1;ratioP1;P1;durP2;ratioP2;P2;SDS_P1;SDS_P2;PMS_P1;PMS_P2;Temp;Humidity;BMP_temperature;BMP_pressure;BME280_temperature;BME280_humidity;BME280_pressure;Samples;Min_cycle;Max_cycle;Signal;HPM_P1;HPM_P2
2022/12/20 00:01:00;;;;;;;1.30;1.20;;;11.00;99.90;;;;;;5073727;28;20226;-46
2022/12/20 00:03:25;;;;;;;1.60;1.30;;;11.00;99.90;;;;;;5073935;28;20207;-44
2022/12/20 00:05:51;;;;;;;2.20;1.23;;;11.00;99.90;;;;;;5074161;28;20289;-46
2022/12/20 00:08:16;;;;;;;2.13;1.20;;;11.00;99.90;;;;;;5074118;28;20182;-46
2022/12/20 00:10:44;;;;;;;2.43;1.27;;;11.00;99.90;;;;;;5074039;28;20211;-45
2022/12/20 00:13:11;;;;;;;1.97;1.20;;;11.00;99.90;;;;;;5075035;28;20262;-44
2022/12/20 00:15:37;;;;;;;4.67;1.40;;;10.90;99.90;;;;;;5073961;28;20183;-46
2022/12/20 00:18:03;;;;;;;3.27;1.57;;;10.90;99.90;;;;;;5073542;28;20183;-45
2022/12/20 00:20:29;;;;;;;2.73;1.20;;;10.90;99.90;;;;;;5075542;28;20573;-45
2022/12/20 00:22:55;;;;;;;5.73;1.47;;;10.90;99.90;;;;;;5074731;28;20182;-46
2022/12/20 00:25:21;;;;;;;1.57;1.30;;;10.80;99.90;;;;;;5073774;28;20172;-44
2022/12/20 00:27:49;;;;;;;1.73;1.20;;;10.80;99.90;;;;;;5073893;28;20179;-44
2022/12/20 00:30:16;;;;;;;4.13;1.40;;;10.80;99.90;;;;;;5073619;28;20194;-44
2022/12/20 00:32:42;;;;;;;2.00;1.30;;;10.80;99.90;;;;;;5073853;28;20240;-45
2022/12/20 00:35:08;;;;;;;1.23;1.07;;;10.80;99.90;;;;;;5074128;28;20645;-46
2022/12/20 00:37:33;;;;;;;3.97;1.70;;;10.80;99.90;;;;;;5073855;28;20183;-43
2022/12/20 00:39:59;;;;;;;1.50;1.20;;;10.80;99.90;;;;;;5073846;28;20631;-44
2022/12/20 00:42:24;;;;;;;1.60;1.20;;;10.80;99.90;;;;;;5073558;28;20205;-45
2022/12/20 00:44:50;;;;;;;2.77;1.50;;;10.70;99.90;;;;;;5073727;28;20230;-45
2022/12/20 00:47:16;;;;;;;1.47;1.20;;;10.70;99.90;;;;;;5073561;28;20178;-45
2022/12/20 00:49:41;;;;;;;2.33;1.33;;;10.70;99.90;;;;;;5073714;28;20211;-44
2022/12/20 00:52:07;;;;;;;1.60;1.20;;;10.70;99.90;;;;;;5073309;28;20213;-44
2022/12/20 00:54:33;;;;;;;1.40;1.20;;;10.70;99.90;;;;;;5072377;28;20184;-45
2022/12/20 00:56:59;;;;;;;2.27;1.40;;;10.70;99.90;;;;;;5073441;28;20179;-47
2022/12/20 00:59:24;;;;;;;3.63;1.37;;;10.60;99.90;;;;;;5074227;28;20180;-44
2022/12/20 01:01:50;;;;;;;2.87;1.30;;;10.60;99.90;;;;;;5073544;28;20248;-44
2022/12/20 01:04:16;;;;;;;1.70;1.50;;;10.60;99.90;;;;;;5073807;28;20189;-45
2022/12/20 01:06:41;;;;;;;2.50;1.33;;;10.60;99.90;;;;;;5073629;28;20176;-46
2022/12/20 01:09:07;;;;;;;4.70;1.90;;;10.60;99.90;;;;;;5073603;28;20209;-43
2022/12/20 01:11:36;;;;;;;4.33;1.40;;;10.60;99.90;;;;;;5073965;28;20215;-44
2022/12/20 01:14:04;;;;;;;2.37;1.30;;;10.70;99.90;;;;;;5073704;28;20183;-44
2022/12/20 01:16:43;;;;;;;2.80;1.60;;;10.70;99.90;;;;;;5073917;28;20524;-45
2022/12/20 01:19:11;;;;;;;6.73;1.43;;;10.70;99.90;;;;;;5074138;28;20191;-45
2022/12/20 01:21:43;;;;;;;3.63;1.40;;;10.60;99.90;;;;;;5073530;28;20675;-46
2022/12/20 01:24:09;;;;;;;2.07;1.20;;;10.60;99.90;;;;;;5074139;28;20171;-43
2022/12/20 01:26:35;;;;;;;3.13;1.60;;;10.50;99.90;;;;;;5074692;28;20183;-46
2022/12/20 01:29:01;;;;;;;2.67;1.50;;;10.50;99.90;;;;;;5075535;28;20539;-45
2022/12/20 01:31:28;;;;;;;2.57;1.40;;;10.50;99.90;;;;;;5077747;28;20323;-43
2022/12/20 01:33:54;;;;;;;4.57;1.87;;;10.50;99.90;;;;;;5076769;28;20199;-44
2022/12/20 01:36:24;;;;;;;3.23;1.90;;;10.60;99.90;;;;;;5077516;28;20631;-45
2022/12/20 01:38:50;;;;;;;1.97;1.60;;;10.60;99.90;;;;;;5076942;28;20183;-45
2022/12/20 01:41:18;;;;;;;1.97;1.50;;;10.60;99.90;;;;;;5076581;28;20256;-45
2022/12/20 01:43:52;;;;;;;3.67;1.60;;;10.60;99.90;;;;;;5076928;28;20210;-45
2022/12/20 01:46:21;;;;;;;2.77;1.60;;;10.50;99.90;;;;;;5076731;28;20254;-45
2022/12/20 01:48:54;;;;;;;3.43;1.60;;;10.50;99.90;;;;;;5076436;28;20203;-44
2022/12/20 01:51:21;;;;;;;2.20;1.60;;;10.50;99.90;;;;;;5076752;28;20234;-45
2022/12/20 01:53:53;;;;;;;2.43;1.70;;;10.40;99.90;;;;;;5076776;28;20704;-46
2022/12/20 01:56:19;;;;;;;3.07;1.70;;;10.40;99.90;;;;;;5076827;28;20170;-45
2022/12/20 01:58:47;;;;;;;2.63;2.07;;;10.40;99.90;;;;;;5076515;28;20266;-44
2022/12/20 02:01:13;;;;;;;4.23;1.83;;;10.40;99.90;;;;;;5076392;28;20202;-45
2022/12/20 03:04:19;;;;;;;3.33;1.83;;;9.90;99.90;;;;;;5075198;28;20286;-50
2022/12/20 03:07:02;;;;;;;3.00;1.97;;;9.90;99.90;;;;;;5075280;28;20183;-50
2022/12/20 03:09:30;;;;;;;2.47;2.10;;;9.80;99.90;;;;;;5075121;28;20163;-50
2022/12/20 03:11:55;;;;;;;3.70;1.70;;;9.80;99.90;;;;;;5075387;28;20210;-50
2022/12/20 03:14:21;;;;;;;3.30;2.20;;;9.70;99.90;;;;;;5074696;28;20632;-50
2022/12/20 03:16:47;;;;;;;3.13;2.23;;;9.80;99.90;;;;;;5074553;28;20243;-51
2022/12/20 03:19:13;;;;;;;3.87;1.90;;;9.70;99.90;;;;;;5075289;28;20569;-50
2022/12/20 03:21:38;;;;;;;3.43;2.30;;;9.60;99.90;;;;;;5075118;28;20234;-45
2022/12/20 03:24:04;;;;;;;2.93;1.67;;;9.60;99.90;;;;;;5074859;28;20583;-45
2022/12/20 03:26:30;;;;;;;3.27;2.20;;;9.50;99.90;;;;;;5074841;28;20191;-45
2022/12/20 03:28:55;;;;;;;2.80;1.80;;;9.40;99.90;;;;;;5074849;28;20207;-45
2022/12/20 03:31:21;;;;;;;4.70;2.37;;;9.40;99.90;;;;;;5075075;28;20202;-45
2022/12/20 03:33:47;;;;;;;4.50;2.10;;;9.40;99.90;;;;;;5074500;28;20248;-46
2022/12/20 03:36:12;;;;;;;2.77;2.00;;;9.30;99.90;;;;;;5074499;28;20190;-45
2022/12/20 03:38:38;;;;;;;3.63;2.10;;;9.30;99.90;;;;;;5074627;28;20224;-45
2022/12/20 03:41:03;;;;;;;7.00;2.33;;;9.30;99.90;;;;;;5074842;28;20294;-45
2022/12/20 03:43:29;;;;;;;2.83;2.17;;;9.20;99.90;;;;;;5074306;28;20740;-45
2022/12/20 03:45:55;;;;;;;3.93;2.33;;;9.20;99.90;;;;;;5074511;28;20634;-44
2022/12/20 03:48:20;;;;;;;3.73;2.20;;;9.20;99.90;;;;;;5074256;28;20218;-47
2022/12/20 03:50:46;;;;;;;4.10;2.10;;;9.20;99.90;;;;;;5074317;28;20693;-45
2022/12/20 03:53:11;;;;;;;2.73;2.10;;;9.20;99.90;;;;;;5073929;28;20564;-44
2022/12/20 03:55:37;;;;;;;3.10;2.07;;;9.20;99.90;;;;;;5074837;28;20618;-44
2022/12/20 03:58:02;;;;;;;5.20;2.17;;;9.20;99.90;;;;;;5074538;28;20178;-46
2022/12/20 04:00:28;;;;;;;3.83;2.20;;;9.20;99.90;;;;;;5074634;28;20224;-45
2022/12/20 04:02:54;;;;;;;3.97;2.10;;;9.10;99.90;;;;;;5075002;28;20523;-45
2022/12/20 04:05:20;;;;;;;4.70;2.20;;;9.10;99.90;;;;;;5074985;28;20655;-46
2022/12/20 04:07:46;;;;;;;2.13;1.70;;;9.00;99.90;;;;;;5075938;28;20262;-46
2022/12/20 04:10:12;;;;;;;2.63;2.17;;;9.00;99.90;;;;;;5077307;28;20179;-44
2022/12/20 04:12:37;;;;;;;2.87;2.23;;;9.00;99.90;;;;;;5074862;28;20218;-45
2022/12/20 04:15:03;;;;;;;4.27;2.10;;;9.10;99.90;;;;;;5073646;28;20320;-45
2022/12/20 04:17:29;;;;;;;3.43;2.17;;;9.20;99.90;;;;;;5073510;28;20332;-44
2022/12/20 04:19:54;;;;;;;2.43;1.83;;;9.30;99.90;;;;;;5073785;28;20654;-46
2022/12/20 04:22:20;;;;;;;4.33;2.07;;;9.30;99.90;;;;;;5073697;28;20207;-44
2022/12/20 04:24:46;;;;;;;2.53;1.93;;;9.40;99.90;;;;;;5074137;28;20191;-44
2022/12/20 04:27:11;;;;;;;2.43;1.87;;;9.40;99.90;;;;;;5073476;28;20235;-45
2022/12/20 04:29:37;;;;;;;4.53;2.20;;;9.50;99.90;;;;;;5073540;28;20203;-45
2022/12/20 04:32:02;;;;;;;4.93;1.90;;;9.40;99.90;;;;;;5073463;28;20225;-46
2022/12/20 04:34:28;;;;;;;2.53;2.03;;;9.40;99.90;;;;;;5073264;28;20199;-45
2022/12/20 04:36:53;;;;;;;3.30;2.17;;;9.40;99.90;;;;;;5073295;28;20180;-45
2022/12/20 04:39:19;;;;;;;4.67;2.30;;;9.30;99.90;;;;;;5073276;28;20260;-45
2022/12/20 04:41:44;;;;;;;3.20;2.00;;;9.30;99.90;;;;;;5073240;28;20238;-44
2022/12/20 04:44:10;;;;;;;3.53;2.27;;;9.20;99.90;;;;;;5073473;28;20183;-45
2022/12/20 04:46:36;;;;;;;3.93;2.33;;;9.20;99.90;;;;;;5073268;28;20234;-45
2022/12/20 04:49:01;;;;;;;2.67;2.10;;;9.20;99.90;;;;;;5073305;28;20185;-44
2022/12/20 04:51:27;;;;;;;3.67;2.40;;;9.10;99.90;;;;;;5072966;28;20274;-46
2022/12/20 04:53:53;;;;;;;2.60;2.00;;;9.10;99.90;;;;;;5073485;28;20591;-46
2022/12/20 04:56:27;;;;;;;6.70;2.73;;;9.10;99.90;;;;;;5073498;28;20187;-44
2022/12/20 04:58:55;;;;;;;3.40;2.50;;;9.10;99.90;;;;;;5073793;28;20612;-45
2022/12/20 05:01:21;;;;;;;4.33;2.00;;;9.00;99.90;;;;;;5073395;28;20203;-45
2022/12/20 05:03:47;;;;;;;4.50;2.30;;;9.00;99.90;;;;;;5073583;28;20189;-45
2022/12/20 05:06:13;;;;;;;4.60;2.40;;;9.00;99.90;;;;;;5077319;28;20270;-46
2022/12/20 05:08:39;;;;;;;4.50;2.57;;;9.00;99.90;;;;;;5077180;28;20237;-44
2022/12/20 05:11:05;;;;;;;5.47;2.47;;;8.90;99.90;;;;;;5077195;28;20601;-44
2022/12/20 05:13:31;;;;;;;3.17;1.97;;;8.90;99.90;;;;;;5076989;28;20206;-45
2022/12/20 05:15:57;;;;;;;4.13;2.07;;;8.90;99.90;;;;;;5077030;28;20191;-45
2022/12/20 05:18:24;;;;;;;6.57;2.30;;;8.80;99.90;;;;;;5076945;28;20175;-44
2022/12/20 05:26:16;;;;;;;2.53;2.03;;;8.80;99.90;;;;;;5076701;28;20255;-45
2022/12/20 05:26:28;;;;;;;2.27;1.70;;;8.80;99.90;;;;;;5085124;28;20209;-45
2022/12/20 05:28:53;;;;;;;4.33;2.60;;;8.80;99.90;;;;;;5076676;28;20177;-45
2022/12/20 05:31:19;;;;;;;3.17;2.20;;;8.80;99.90;;;;;;5076588;28;20679;-44
2022/12/20 05:33:44;;;;;;;4.87;2.03;;;8.80;99.90;;;;;;5076377;28;20264;-45
2022/12/20 05:36:10;;;;;;;4.10;1.87;;;8.80;99.90;;;;;;5076569;28;20184;-44
2022/12/20 05:38:35;;;;;;;5.43;2.10;;;8.70;99.90;;;;;;5076560;28;20191;-45
2022/12/20 05:41:03;;;;;;;4.53;1.87;;;8.70;99.90;;;;;;5076378;28;20223;-45
2022/12/20 05:43:29;;;;;;;6.07;2.10;;;8.70;99.90;;;;;;5076983;28;20700;-44
2022/12/20 05:45:54;;;;;;;5.03;2.10;;;8.80;99.90;;;;;;5076388;28;20203;-44
2022/12/20 05:48:20;;;;;;;4.57;2.27;;;8.80;99.90;;;;;;5076845;28;20175;-43
2022/12/20 05:50:46;;;;;;;5.20;2.10;;;8.80;99.90;;;;;;5076753;28;20210;-45
2022/12/20 05:53:13;;;;;;;4.93;2.00;;;8.80;99.90;;;;;;5076177;28;20612;-45
2022/12/20 05:55:43;;;;;;;3.87;1.90;;;8.90;99.90;;;;;;5076410;28;20305;-45
2022/12/20 05:58:12;;;;;;;2.57;1.90;;;8.90;99.90;;;;;;5076593;28;20168;-45
2022/12/20 06:00:39;;;;;;;4.03;2.20;;;8.80;99.90;;;;;;5077219;28;20216;-44
2022/12/20 06:03:05;;;;;;;5.40;2.67;;;8.90;99.90;;;;;;5076693;28;20549;-46
2022/12/20 06:05:30;;;;;;;3.90;2.57;;;8.90;99.90;;;;;;5076903;28;20183;-44
2022/12/20 06:07:56;;;;;;;4.33;2.63;;;8.90;99.90;;;;;;5077352;28;20262;-44
2022/12/20 06:10:23;;;;;;;6.00;2.43;;;8.90;99.90;;;;;;5080260;28;20188;-46
2022/12/20 06:12:49;;;;;;;3.67;2.40;;;8.90;99.90;;;;;;5089573;28;20214;-45
2022/12/20 06:15:14;;;;;;;7.03;2.70;;;8.90;99.90;;;;;;5088256;28;20181;-46
2022/12/20 06:17:40;;;;;;;4.40;2.33;;;8.90;99.90;;;;;;5075682;28;20183;-44
2022/12/20 06:20:07;;;;;;;5.57;2.47;;;8.90;99.90;;;;;;5076813;28;20174;-45
2022/12/20 06:22:33;;;;;;;3.10;2.10;;;8.90;99.90;;;;;;5075876;28;20199;-44
2022/12/20 06:24:58;;;;;;;2.93;2.33;;;8.90;99.90;;;;;;5076242;28;20244;-45
2022/12/20 06:27:24;;;;;;;4.17;2.50;;;8.90;99.90;;;;;;5075974;28;20719;-46
2022/12/20 06:29:53;;;;;;;7.87;3.27;;;8.80;99.90;;;;;;5076126;28;20185;-47
2022/12/20 06:32:19;;;;;;;3.83;2.50;;;8.80;99.90;;;;;;5075628;28;20220;-45
2022/12/20 06:34:45;;;;;;;7.90;2.30;;;8.80;99.90;;;;;;5075436;28;20566;-45
2022/12/20 06:37:11;;;;;;;3.17;2.07;;;8.80;99.90;;;;;;5075427;28;20177;-46
2022/12/20 06:39:36;;;;;;;3.73;2.17;;;8.80;99.90;;;;;;5075380;28;20205;-46
2022/12/20 06:42:02;;;;;;;3.00;1.43;;;8.70;99.90;;;;;;5075121;28;20213;-45
2022/12/20 06:44:28;;;;;;;2.40;1.87;;;8.70;99.90;;;;;;5075296;28;20188;-44
2022/12/20 06:46:53;;;;;;;4.00;1.90;;;8.80;99.90;;;;;;5075137;28;20230;-44
2022/12/20 06:49:19;;;;;;;3.50;2.33;;;8.80;99.90;;;;;;5075348;28;20183;-44
2022/12/20 06:51:44;;;;;;;1.97;1.70;;;8.80;99.90;;;;;;5075054;28;20208;-45
2022/12/20 06:54:10;;;;;;;6.73;2.00;;;8.90;99.90;;;;;;5075266;28;20650;-45
2022/12/20 06:56:35;;;;;;;2.23;1.73;;;9.00;99.90;;;;;;5075255;28;20587;-44
2022/12/20 06:59:01;;;;;;;2.40;1.60;;;9.00;99.90;;;;;;5075146;28;20577;-47
2022/12/20 07:01:27;;;;;;;3.50;1.57;;;9.00;99.90;;;;;;5074762;28;20196;-45
2022/12/20 07:03:52;;;;;;;1.97;1.77;;;9.10;99.90;;;;;;5075346;28;20299;-45
2022/12/20 07:06:18;;;;;;;3.03;1.53;;;9.20;99.90;;;;;;5075106;28;20186;-45
2022/12/20 07:08:43;;;;;;;4.67;2.63;;;9.30;99.90;;;;;;5075014;28;20171;-44
2022/12/20 07:11:09;;;;;;;2.27;1.37;;;9.30;99.90;;;;;;5074862;28;20294;-47
2022/12/20 07:13:35;;;;;;;2.47;1.63;;;9.40;99.90;;;;;;5074840;28;20220;-44
2022/12/20 07:16:02;;;;;;;2.90;1.80;;;9.40;99.90;;;;;;5075109;28;20651;-43
2022/12/20 07:18:28;;;;;;;3.83;1.50;;;9.40;99.90;;;;;;5074561;28;20697;-43
2022/12/20 07:20:58;;;;;;;3.93;1.73;;;9.40;99.90;;;;;;5074616;28;20195;-43
2022/12/20 07:23:23;;;;;;;2.50;1.63;;;9.40;99.90;;;;;;5074528;28;20186;-45
2022/12/20 07:25:54;;;;;;;2.23;1.57;;;9.40;99.90;;;;;;5074678;28;20181;-46
2022/12/20 07:28:20;;;;;;;2.20;1.57;;;9.40;99.90;;;;;;5073068;28;20214;-44
2022/12/20 07:30:45;;;;;;;2.07;1.77;;;9.40;99.90;;;;;;5074198;28;20235;-46
2022/12/20 07:33:11;;;;;;;3.17;1.70;;;9.40;99.90;;;;;;5074218;28;20217;-44
2022/12/20 07:35:36;;;;;;;3.40;1.60;;;9.40;99.90;;;;;;5074162;28;20174;-45
2022/12/20 07:38:02;;;;;;;4.73;2.33;;;9.40;99.90;;;;;;5074493;28;20202;-50
2022/12/20 07:40:27;;;;;;;4.80;2.00;;;9.40;99.90;;;;;;5074205;28;20190;-49
2022/12/20 07:42:53;;;;;;;2.87;2.07;;;9.40;99.90;;;;;;5074040;28;20224;-48
2022/12/20 07:45:18;;;;;;;3.60;1.80;;;9.40;99.90;;;;;;5074209;28;20193;-52
2022/12/20 07:47:44;;;;;;;1.47;1.30;;;9.40;99.90;;;;;;5074236;28;20195;-50
2022/12/20 07:50:10;;;;;;;3.07;1.60;;;9.50;99.90;;;;;;5073765;28;20288;-49
2022/12/20 07:52:37;;;;;;;2.00;1.40;;;9.50;99.90;;;;;;5074082;28;20209;-49
2022/12/20 07:55:07;;;;;;;2.17;1.47;;;9.60;99.90;;;;;;5073761;28;20173;-50
2022/12/20 07:57:41;;;;;;;2.20;1.70;;;9.70;99.90;;;;;;5073581;28;20190;-49
2022/12/20 08:00:08;;;;;;;2.30;1.73;;;9.70;99.90;;;;;;5073793;28;20246;-51
2022/12/20 08:02:45;;;;;;;2.37;1.67;;;9.70;99.90;;;;;;5072306;28;20214;-50
2022/12/20 08:05:11;;;;;;;2.00;1.50;;;9.80;99.90;;;;;;5073939;28;20175;-50
2022/12/20 08:07:40;;;;;;;2.27;1.60;;;9.80;99.90;;;;;;5073930;28;20194;-50
2022/12/20 08:10:08;;;;;;;3.53;1.70;;;9.80;99.90;;;;;;5073519;28;20206;-49
2022/12/20 08:12:34;;;;;;;2.53;1.67;;;9.70;99.90;;;;;;5073320;28;20211;-49
2022/12/20 08:15:00;;;;;;;3.27;1.60;;;9.80;99.90;;;;;;5073873;28;20645;-49
2022/12/20 08:17:25;;;;;;;3.20;1.87;;;9.80;99.90;;;;;;5073500;28;20580;-50
2022/12/20 08:19:51;;;;;;;2.40;1.77;;;9.90;99.90;;;;;;5073605;28;20173;-49
2022/12/20 08:22:19;;;;;;;2.00;1.60;;;9.90;99.90;;;;;;5073693;28;20205;-49
2022/12/20 08:24:45;;;;;;;4.70;1.57;;;9.80;99.90;;;;;;5073418;28;20186;-50
2022/12/20 08:27:11;;;;;;;3.70;1.53;;;9.90;99.90;;;;;;5073815;28;20186;-49
2022/12/20 08:29:37;;;;;;;3.83;1.77;;;10.00;99.90;;;;;;5073893;28;20184;-49
2022/12/20 08:32:02;;;;;;;1.83;1.30;;;10.00;99.90;;;;;;5073420;28;20565;-51
2022/12/20 08:34:28;;;;;;;4.17;1.67;;;10.10;99.90;;;;;;5073566;28;20191;-51
2022/12/20 08:36:54;;;;;;;2.57;1.47;;;10.10;99.90;;;;;;5073592;28;20205;-49
2022/12/20 08:39:19;;;;;;;3.00;1.33;;;10.20;99.90;;;;;;5073137;28;20185;-50
2022/12/20 08:41:45;;;;;;;2.47;1.40;;;10.20;99.90;;;;;;5073670;28;20191;-49
2022/12/20 08:44:10;;;;;;;3.30;1.63;;;10.20;99.90;;;;;;5073401;28;20674;-50
2022/12/20 08:46:36;;;;;;;3.73;1.67;;;10.30;99.90;;;;;;5073640;28;20195;-49
2022/12/20 08:49:05;;;;;;;3.27;1.80;;;10.30;99.90;;;;;;5073581;28;20251;-49
2022/12/20 08:51:31;;;;;;;2.07;1.40;;;10.30;99.90;;;;;;5073322;28;20203;-49
2022/12/20 08:53:57;;;;;;;2.87;1.40;;;10.30;99.90;;;;;;5073523;28;20186;-48
2022/12/20 08:56:23;;;;;;;5.93;1.67;;;10.30;99.90;;;;;;5072296;28;20183;-51
2022/12/20 08:58:49;;;;;;;1.80;1.40;;;10.30;99.90;;;;;;5073299;28;20643;-50
2022/12/20 09:01:17;;;;;;;1.77;1.30;;;10.30;99.90;;;;;;5073571;28;20221;-50
2022/12/20 09:03:44;;;;;;;2.97;1.87;;;10.30;99.90;;;;;;5073633;28;20179;-50
2022/12/20 09:06:12;;;;;;;1.93;1.23;;;10.30;99.90;;;;;;5073361;28;20281;-49
2022/12/20 09:08:39;;;;;;;2.23;1.53;;;10.30;99.90;;;;;;5073487;28;20251;-49
2022/12/20 09:11:13;;;;;;;3.97;1.60;;;10.30;99.90;;;;;;5073301;28;20209;-48
2022/12/20 09:13:39;;;;;;;2.73;1.10;;;10.40;99.90;;;;;;5073053;28;20681;-50
2022/12/20 09:16:07;;;;;;;2.53;1.57;;;10.40;99.90;;;;;;5073182;28;20204;-49
2022/12/20 09:18:33;;;;;;;2.23;1.40;;;10.40;99.90;;;;;;5073559;28;20186;-50
2022/12/20 09:21:00;;;;;;;2.67;1.50;;;10.40;99.90;;;;;;5072798;28;20209;-50
2022/12/20 09:23:26;;;;;;;1.33;1.20;;;10.40;99.90;;;;;;5073453;28;20179;-51
2022/12/20 09:25:52;;;;;;;1.57;1.23;;;10.40;99.90;;;;;;5073509;28;20193;-50
2022/12/20 09:28:17;;;;;;;4.57;1.30;;;10.40;99.90;;;;;;5073113;28;20179;-50
2022/12/20 09:30:43;;;;;;;3.83;1.73;;;10.40;99.90;;;;;;5073495;28;20200;-50
2022/12/20 09:33:08;;;;;;;2.17;1.40;;;10.40;99.90;;;;;;5073348;28;20221;-49
2022/12/20 09:35:34;;;;;;;6.03;1.70;;;10.50;99.90;;;;;;5071988;28;20267;-51
2022/12/20 09:38:00;;;;;;;1.87;1.50;;;10.40;99.90;;;;;;5074069;28;20179;-49
2022/12/20 09:40:31;;;;;;;2.53;1.20;;;10.50;99.90;;;;;;5074338;28;20172;-51
2022/12/20 09:42:57;;;;;;;4.30;1.50;;;10.40;99.90;;;;;;5072966;28;20317;-49
2022/12/20 09:45:30;;;;;;;2.73;1.70;;;10.40;99.90;;;;;;5080276;28;20184;-50
2022/12/20 09:47:55;;;;;;;1.47;1.30;;;10.50;99.90;;;;;;5080927;28;20170;-48
2022/12/20 09:50:38;;;;;;;4.07;1.60;;;10.40;99.90;;;;;;5073012;28;20663;-49
2022/12/20 09:53:42;;;;;;;5.87;1.37;;;10.40;99.90;;;;;;5076560;28;20680;-51
2022/12/20 09:56:22;;;;;;;3.73;1.50;;;10.50;99.90;;;;;;5073591;28;20662;-49
2022/12/20 09:59:12;;;;;;;3.33;1.43;;;10.50;99.90;;;;;;5075171;28;20548;-49
2022/12/20 10:01:41;;;;;;;2.67;1.17;;;10.50;99.90;;;;;;5075991;28;20235;-49
2022/12/20 10:04:20;;;;;;;2.27;1.70;;;10.60;99.90;;;;;;5076411;28;20187;-49
2022/12/20 10:07:01;;;;;;;1.80;1.43;;;10.50;99.90;;;;;;5076156;28;20171;-51
2022/12/20 10:09:38;;;;;;;3.13;1.40;;;10.60;99.90;;;;;;5076223;28;20170;-49
2022/12/20 10:12:34;;;;;;;1.87;1.37;;;10.60;99.90;;;;;;5076567;28;20272;-50
2022/12/20 10:15:08;;;;;;;3.63;1.57;;;10.70;99.90;;;;;;5076842;28;20168;-50
2022/12/20 10:17:45;;;;;;;5.23;1.53;;;10.80;99.90;;;;;;5074928;28;20539;-50
2022/12/20 10:21:05;;;;;;;2.17;1.47;;;10.80;99.90;;;;;;5076089;28;20170;-49
2022/12/20 10:23:36;;;;;;;3.27;1.43;;;10.90;99.90;;;;;;5057133;28;20179;-48
2022/12/20 10:26:08;;;;;;;4.67;1.37;;;10.90;99.90;;;;;;5075627;28;20191;-48
2022/12/20 10:28:35;;;;;;;3.00;2.23;;;11.00;99.90;;;;;;5075653;28;20697;-50
2022/12/20 10:31:04;;;;;;;7.83;2.03;;;11.00;99.90;;;;;;5074400;28;20664;-50
2022/12/20 10:33:31;;;;;;;2.83;1.57;;;11.10;99.90;;;;;;5074076;28;20239;-51
2022/12/20 10:36:21;;;;;;;2.20;1.30;;;11.10;99.90;;;;;;5075551;28;20179;-50
2022/12/20 10:38:51;;;;;;;5.23;1.67;;;11.20;99.90;;;;;;5074361;28;20184;-52
2022/12/20 10:41:20;;;;;;;4.60;1.60;;;11.20;99.90;;;;;;5075476;28;20281;-49
2022/12/20 10:44:03;;;;;;;5.90;1.80;;;11.30;99.90;;;;;;5075391;28;20179;-50
2022/12/20 10:46:41;;;;;;;2.47;1.33;;;11.30;99.90;;;;;;5074114;28;20265;-49
2022/12/20 10:49:22;;;;;;;2.00;1.40;;;11.40;99.90;;;;;;5075795;28;20216;-49
2022/12/20 10:51:56;;;;;;;2.63;1.60;;;11.50;99.90;;;;;;5073774;28;20217;-49
2022/12/20 10:54:34;;;;;;;3.87;1.33;;;11.50;99.90;;;;;;5075113;28;20214;-50
2022/12/20 10:57:21;;;;;;;4.77;1.30;;;11.60;99.90;;;;;;5075598;28;20240;-49
2022/12/20 10:59:59;;;;;;;1.80;1.27;;;11.70;99.90;;;;;;5073569;28;20290;-44
2022/12/20 11:02:39;;;;;;;5.47;2.30;;;11.70;99.90;;;;;;5074756;28;20237;-43
2022/12/20 11:05:10;;;;;;;4.60;1.50;;;11.80;99.90;;;;;;5074921;28;20189;-45
2022/12/20 11:07:50;;;;;;;5.50;1.50;;;11.70;99.90;;;;;;5074248;28;20253;-45
2022/12/20 11:10:25;;;;;;;3.67;1.50;;;11.80;99.90;;;;;;5074843;28;20191;-44
2022/12/20 11:13:00;;;;;;;2.93;1.63;;;11.80;99.90;;;;;;5073492;28;20202;-43
2022/12/20 11:15:32;;;;;;;3.60;1.60;;;11.80;99.90;;;;;;5074709;28;20162;-43
2022/12/20 11:18:21;;;;;;;5.97;1.57;;;11.80;99.90;;;;;;5074727;28;20250;-43
2022/12/20 11:21:16;;;;;;;6.10;1.60;;;11.80;99.90;;;;;;5077944;28;20249;-45
2022/12/20 11:24:01;;;;;;;6.23;1.83;;;11.70;99.90;;;;;;5077428;28;20227;-45
2022/12/20 11:26:57;;;;;;;3.13;1.33;;;11.80;99.90;;;;;;5073437;28;20233;-44
2022/12/20 11:30:01;;;;;;;4.07;1.23;;;11.80;99.90;;;;;;5074711;28;20704;-44
2022/12/20 11:33:00;;;;;;;1.17;1.00;;;11.80;99.90;;;;;;5072853;28;20211;-44
2022/12/20 11:35:40;;;;;;;2.90;1.50;;;11.80;99.90;;;;;;5074814;28;20179;-45
2022/12/20 11:38:24;;;;;;;3.43;1.20;;;11.90;99.90;;;;;;5074599;28;20164;-45
2022/12/20 11:41:15;;;;;;;1.83;1.20;;;11.90;99.90;;;;;;5074377;28;20205;-46
2022/12/20 11:44:00;;;;;;;1.97;1.33;;;12.00;99.90;;;;;;5074171;28;20183;-46
2022/12/20 11:46:38;;;;;;;2.10;1.50;;;12.00;99.90;;;;;;5074482;28;20643;-44
2022/12/20 11:49:04;;;;;;;2.17;1.30;;;12.00;99.90;;;;;;5072839;28;20179;-45
2022/12/20 11:52:05;;;;;;;2.17;1.40;;;12.00;99.90;;;;;;5074003;28;20211;-45
2022/12/20 11:54:38;;;;;;;3.60;1.57;;;12.10;99.90;;;;;;5073800;28;20255;-44
2022/12/20 11:57:14;;;;;;;2.40;1.47;;;12.10;99.90;;;;;;5072612;28;20180;-47
2022/12/20 11:59:47;;;;;;;2.23;1.30;;;12.10;99.90;;;;;;5074220;28;20175;-45
2022/12/20 12:02:26;;;;;;;2.67;1.57;;;12.10;99.90;;;;;;5072628;28;20286;-45
2022/12/20 12:05:06;;;;;;;3.27;1.53;;;12.10;99.90;;;;;;5072420;28;20541;-45
2022/12/20 12:07:35;;;;;;;3.67;1.80;;;12.00;99.90;;;;;;5073947;28;20203;-46
2022/12/20 12:10:15;;;;;;;2.93;1.40;;;12.00;99.90;;;;;;5072503;28;20277;-46
2022/12/20 12:13:08;;;;;;;3.50;1.73;;;12.00;99.90;;;;;;5072642;28;20220;-47
2022/12/20 12:15:49;;;;;;;2.37;1.27;;;11.90;99.90;;;;;;5073248;28;20627;-45
2022/12/20 12:18:26;;;;;;;4.17;1.97;;;11.90;99.90;;;;;;5074154;28;20233;-45
2022/12/20 12:21:04;;;;;;;2.50;1.50;;;11.80;99.90;;;;;;5072329;28;20206;-49
2022/12/20 12:23:41;;;;;;;3.03;1.70;;;11.70;99.90;;;;;;5073909;28;20183;-49
2022/12/20 12:26:28;;;;;;;1.50;1.30;;;11.70;99.90;;;;;;5072373;28;20191;-49
2022/12/20 12:29:00;;;;;;;1.50;1.20;;;11.60;99.90;;;;;;5073546;28;20179;-50
2022/12/20 12:31:48;;;;;;;3.20;1.50;;;11.60;99.90;;;;;;5073341;28;20576;-49
2022/12/20 12:34:34;;;;;;;1.43;1.20;;;11.50;99.90;;;;;;5073449;28;20191;-51
2022/12/20 12:37:27;;;;;;;2.60;1.70;;;11.50;99.90;;;;;;5074414;28;20505;-49
2022/12/20 12:40:11;;;;;;;2.37;1.50;;;11.50;99.90;;;;;;5073398;28;20160;-51
2022/12/20 12:42:45;;;;;;;3.50;1.63;;;11.50;99.90;;;;;;5073588;28;20260;-49
2022/12/20 12:45:23;;;;;;;1.83;1.40;;;11.40;99.90;;;;;;5073550;28;20189;-46
2022/12/20 12:47:54;;;;;;;8.43;1.80;;;11.40;99.90;;;;;;5073553;28;20221;-43
2022/12/20 12:50:36;;;;;;;3.73;1.63;;;11.40;99.90;;;;;;5072069;28;20175;-45
2022/12/20 12:53:19;;;;;;;1.67;1.30;;;11.30;99.90;;;;;;5056736;28;20226;-44
2022/12/20 12:55:51;;;;;;;1.97;1.30;;;11.30;99.90;;;;;;5073443;28;20171;-45
2022/12/20 12:58:22;;;;;;;3.80;1.73;;;11.30;99.90;;;;;;5072197;28;20179;-45
2022/12/20 13:01:08;;;;;;;2.97;1.47;;;11.20;99.90;;;;;;5073000;28;20698;-47
2022/12/20 13:03:38;;;;;;;2.63;1.50;;;11.20;99.90;;;;;;5073320;28;20254;-44
2022/12/20 13:06:22;;;;;;;2.10;1.33;;;11.20;99.90;;;;;;5071822;28;20232;-44
2022/12/20 13:09:03;;;;;;;4.37;1.60;;;11.20;99.90;;;;;;5071872;28;20188;-43
2022/12/20 13:11:40;;;;;;;2.87;1.40;;;11.20;99.90;;;;;;5073255;28;20272;-43
2022/12/20 13:14:22;;;;;;;1.97;1.43;;;11.20;99.90;;;;;;5071893;28;20174;-45
2022/12/20 13:16:53;;;;;;;5.50;1.70;;;11.20;99.90;;;;;;5071736;28;20187;-45
2022/12/20 13:19:24;;;;;;;4.27;1.80;;;11.30;99.90;;;;;;5073939;28;20168;-44
2022/12/20 13:22:05;;;;;;;2.10;1.63;;;11.30;99.90;;;;;;5074440;28;20738;-45
2022/12/20 13:24:51;;;;;;;3.90;1.23;;;11.30;99.90;;;;;;5089110;28;20179;-43
2022/12/20 13:27:20;;;;;;;2.83;1.27;;;11.40;99.90;;;;;;5094171;28;20172;-43
2022/12/20 13:29:57;;;;;;;3.30;1.60;;;11.40;99.90;;;;;;5078690;28;20268;-42
2022/12/20 13:32:55;;;;;;;1.73;1.50;;;11.40;99.90;;;;;;5075339;28;20218;-43
2022/12/20 13:35:24;;;;;;;4.07;1.40;;;11.40;99.90;;;;;;5077334;28;20190;-48
2022/12/20 13:38:04;;;;;;;1.90;1.47;;;11.40;99.90;;;;;;5075494;28;20211;-44
2022/12/20 13:40:39;;;;;;;4.90;1.77;;;11.50;99.90;;;;;;5075307;28;20203;-43
2022/12/20 13:43:14;;;;;;;6.97;1.87;;;11.50;99.90;;;;;;5075172;28;20585;-44
2022/12/20 13:45:44;;;;;;;2.53;1.60;;;11.50;99.90;;;;;;5075227;28;20187;-41
2022/12/20 13:48:33;;;;;;;1.80;1.33;;;11.50;99.90;;;;;;5077201;28;20183;-42
2022/12/20 13:51:00;;;;;;;3.43;1.50;;;11.50;99.90;;;;;;5071311;28;20215;-44
2022/12/20 13:53:26;;;;;;;4.37;1.47;;;11.50;99.90;;;;;;5076466;28;20218;-43
2022/12/20 13:55:53;;;;;;;4.20;1.40;;;11.50;99.90;;;;;;5074976;28;20241;-43
2022/12/20 13:58:33;;;;;;;3.23;1.77;;;11.50;99.90;;;;;;5074765;28;20182;-42
2022/12/20 14:01:10;;;;;;;2.57;1.53;;;11.50;99.90;;;;;;5074747;28;20206;-45
2022/12/20 14:03:41;;;;;;;5.10;2.00;;;11.50;99.90;;;;;;5076378;28;20237;-43
2022/12/20 14:06:12;;;;;;;5.27;1.57;;;11.50;99.90;;;;;;5076323;28;20164;-45
2022/12/20 14:08:42;;;;;;;6.93;2.10;;;11.40;99.90;;;;;;5076974;28;20184;-46
2022/12/20 14:11:13;;;;;;;5.23;2.40;;;11.40;99.90;;;;;;5075924;28;20336;-42